sensor_id;sensor_type;location;lat;lon;timestamp;P1;durP1;ratioP1;P2;durP2;ratioP2
19869;SDS011;10097;50.862;4.696;2023-08-31T00:01:15;5.87;;;1.63;;
19869;SDS011;10097;50.862;4.696;2023-08-31T00:03:41;6.17;;;1.87;;
19869;SDS011;10097;50.862;4.696;2023-08-31T00:06:06;3.00;;;1.63;;
19869;SDS011;10097;50.862;4.696;2023-08-31T00:08:32;4.97;;;1.87;;
19869;SDS011;10097;50.862;4.696;2023-08-31T00:10:59;6.57;;;1.60;;
19869;SDS011;10097;50.862;4.696;2023-08-31T00:13:26;5.77;;;2.30;;
19869;SDS011;10097;50.862;4.696;2023-08-31T00:15:55;6.70;;;2.27;;
19869;SDS011;10097;50.862;4.696;2023-08-31T00:18:25;4.77;;;2.10;;
19869;SDS011;10097;50.862;4.696;2023-08-31T00:20:51;6.20;;;2.40;;
19869;SDS011;10097;50.862;4.696;2023-08-31T00:23:17;7.87;;;2.63;;
19869;SDS011;10097;50.862;4.696;2023-08-31T00:25:44;5.37;;;2.50;;
19869;SDS011;10097;50.862;4.696;2023-08-31T00:28:10;8.40;;;2.60;;
19869;SDS011;10097;50.862;4.696;2023-08-31T00:30:35;7.20;;;2.70;;
19869;SDS011;10097;50.862;4.696;2023-08-31T00:33:01;7.63;;;2.60;;
19869;SDS011;10097;50.862;4.696;2023-08-31T00:35:27;5.40;;;2.73;;
19869;SDS011;10097;50.862;4.696;2023-08-31T00:37:53;6.13;;;2.40;;
19869;SDS011;10097;50.862;4.696;2023-08-31T00:40:23;6.50;;;2.40;;
19869;SDS011;10097;50.862;4.696;2023-08-31T00:42:50;8.17;;;3.00;;
19869;SDS011;10097;50.862;4.696;2023-08-31T00:45:17;5.73;;;2.80;;
19869;SDS011;10097;50.862;4.696;2023-08-31T00:47:44;7.87;;;2.97;;
19869;SDS011;10097;50.862;4.696;2023-08-31T00:50:14;5.67;;;2.47;;
19869;SDS011;10097;50.862;4.696;2023-08-31T00:52:41;7.90;;;2.47;;
19869;SDS011;10097;50.862;4.696;2023-08-31T00:55:10;5.60;;;2.50;;
19869;SDS011;10097;50.862;4.696;2023-08-31T00:57:36;7.53;;;3.00;;
19869;SDS011;10097;50.862;4.696;2023-08-31T01:00:02;9.03;;;3.33;;
19869;SDS011;10097;50.862;4.696;2023-08-31T01:02:40;6.63;;;2.70;;
19869;SDS011;10097;50.862;4.696;2023-08-31T01:05:20;6.27;;;3.07;;
19869;SDS011;10097;50.862;4.696;2023-08-31T01:07:54;7.93;;;2.80;;
19869;SDS011;10097;50.862;4.696;2023-08-31T01:13:24;7.13;;;3.27;;
19869;SDS011;10097;50.862;4.696;2023-08-31T01:15:54;10.80;;;3.20;;
19869;SDS011;10097;50.862;4.696;2023-08-31T01:18:24;6.97;;;3.13;;
19869;SDS011;10097;50.862;4.696;2023-08-31T01:20:55;8.93;;;3.07;;
19869;SDS011;10097;50.862;4.696;2023-08-31T01:26:18;9.97;;;3.63;;
19869;SDS011;10097;50.862;4.696;2023-08-31T01:28:45;9.30;;;3.73;;
19869;SDS011;10097;50.862;4.696;2023-08-31T01:31:12;9.07;;;3.33;;
19869;SDS011;10097;50.862;4.696;2023-08-31T01:33:37;7.97;;;3.57;;
19869;SDS011;10097;50.862;4.696;2023-08-31T01:36:04;7.23;;;3.40;;
19869;SDS011;10097;50.862;4.696;2023-08-31T01:38:36;10.30;;;3.47;;
19869;SDS011;10097;50.862;4.696;2023-08-31T01:41:07;10.77;;;3.90;;
19869;SDS011;10097;50.862;4.696;2023-08-31T01:43:36;8.40;;;3.53;;
19869;SDS011;10097;50.862;4.696;2023-08-31T01:46:03;8.83;;;3.50;;
19869;SDS011;10097;50.862;4.696;2023-08-31T01:48:29;10.53;;;3.70;;
19869;SDS011;10097;50.862;4.696;2023-08-31T01:50:55;8.00;;;3.93;;
19869;SDS011;10097;50.862;4.696;2023-08-31T01:53:21;10.13;;;4.33;;
19869;SDS011;10097;50.862;4.696;2023-08-31T01:55:47;12.63;;;4.27;;
19869;SDS011;10097;50.862;4.696;2023-08-31T01:58:13;11.07;;;3.80;;
19869;SDS011;10097;50.862;4.696;2023-08-31T02:00:41;11.17;;;3.83;;
19869;SDS011;10097;50.862;4.696;2023-08-31T02:03:07;8.27;;;3.90;;
19869;SDS011;10097;50.862;4.696;2023-08-31T02:05:33;10.17;;;4.03;;
19869;SDS011;10097;50.862;4.696;2023-08-31T02:07:58;10.43;;;3.93;;
19869;SDS011;10097;50.862;4.696;2023-08-31T02:10:24;10.80;;;4.30;;
19869;SDS011;10097;50.862;4.696;2023-08-31T02:12:51;9.93;;;3.93;;
19869;SDS011;10097;50.862;4.696;2023-08-31T02:15:17;9.87;;;4.33;;
19869;SDS011;10097;50.862;4.696;2023-08-31T02:17:42;9.40;;;4.30;;
19869;SDS011;10097;50.862;4.696;2023-08-31T02:20:08;8.23;;;3.80;;
19869;SDS011;10097;50.862;4.696;2023-08-31T02:22:34;11.30;;;4.83;;
19869;SDS011;10097;50.862;4.696;2023-08-31T02:25:00;12.40;;;4.07;;
19869;SDS011;10097;50.862;4.696;2023-08-31T02:27:26;8.80;;;4.10;;
19869;SDS011;10097;50.862;4.696;2023-08-31T02:29:52;10.50;;;4.77;;
19869;SDS011;10097;50.862;4.696;2023-08-31T02:32:18;11.23;;;4.70;;
19869;SDS011;10097;50.862;4.696;2023-08-31T02:34:44;10.90;;;4.47;;
19869;SDS011;10097;50.862;4.696;2023-08-31T02:37:10;7.43;;;3.83;;
19869;SDS011;10097;50.862;4.696;2023-08-31T02:39:35;12.50;;;4.63;;
19869;SDS011;10097;50.862;4.696;2023-08-31T02:42:01;10.67;;;4.77;;
19869;SDS011;10097;50.862;4.696;2023-08-31T02:44:27;12.50;;;4.40;;
19869;SDS011;10097;50.862;4.696;2023-08-31T02:46:55;11.67;;;4.70;;
19869;SDS011;10097;50.862;4.696;2023-08-31T02:49:20;12.70;;;4.50;;
19869;SDS011;10097;50.862;4.696;2023-08-31T02:51:46;11.63;;;4.50;;
19869;SDS011;10097;50.862;4.696;2023-08-31T02:54:14;8.87;;;4.80;;
19869;SDS011;10097;50.862;4.696;2023-08-31T02:56:40;10.47;;;4.63;;
19869;SDS011;10097;50.862;4.696;2023-08-31T02:59:05;11.87;;;4.80;;
19869;SDS011;10097;50.862;4.696;2023-08-31T03:01:31;12.87;;;4.77;;
19869;SDS011;10097;50.862;4.696;2023-08-31T03:03:57;9.87;;;4.77;;
19869;SDS011;10097;50.862;4.696;2023-08-31T03:06:23;9.93;;;4.40;;
19869;SDS011;10097;50.862;4.696;2023-08-31T03:08:48;14.17;;;4.90;;
19869;SDS011;10097;50.862;4.696;2023-08-31T03:11:14;9.67;;;4.47;;
19869;SDS011;10097;50.862;4.696;2023-08-31T03:13:39;13.00;;;4.53;;
19869;SDS011;10097;50.862;4.696;2023-08-31T03:16:06;11.33;;;4.40;;
19869;SDS011;10097;50.862;4.696;2023-08-31T03:18:34;10.37;;;4.43;;
19869;SDS011;10097;50.862;4.696;2023-08-31T03:21:00;11.17;;;4.67;;
19869;SDS011;10097;50.862;4.696;2023-08-31T03:23:26;12.10;;;4.50;;
19869;SDS011;10097;50.862;4.696;2023-08-31T03:25:55;12.13;;;4.90;;
19869;SDS011;10097;50.862;4.696;2023-08-31T03:28:21;12.23;;;4.27;;
19869;SDS011;10097;50.862;4.696;2023-08-31T03:30:53;11.70;;;4.23;;
19869;SDS011;10097;50.862;4.696;2023-08-31T03:33:20;12.73;;;4.67;;
19869;SDS011;10097;50.862;4.696;2023-08-31T03:35:46;13.87;;;4.67;;
19869;SDS011;10097;50.862;4.696;2023-08-31T03:38:14;12.60;;;4.47;;
19869;SDS011;10097;50.862;4.696;2023-08-31T03:40:40;11.13;;;4.43;;
19869;SDS011;10097;50.862;4.696;2023-08-31T03:43:06;14.87;;;4.60;;
19869;SDS011;10097;50.862;4.696;2023-08-31T03:45:31;11.67;;;4.40;;
19869;SDS011;10097;50.862;4.696;2023-08-31T03:47:57;12.40;;;4.80;;
19869;SDS011;10097;50.862;4.696;2023-08-31T03:50:23;9.63;;;4.37;;
19869;SDS011;10097;50.862;4.696;2023-08-31T03:52:49;12.33;;;4.90;;
19869;SDS011;10097;50.862;4.696;2023-08-31T03:55:15;9.33;;;4.37;;
19869;SDS011;10097;50.862;4.696;2023-08-31T03:57:41;10.03;;;4.20;;
19869;SDS011;10097;50.862;4.696;2023-08-31T04:00:06;9.77;;;4.27;;
19869;SDS011;10097;50.862;4.696;2023-08-31T04:02:34;14.17;;;4.50;;
19869;SDS011;10097;50.862;4.696;2023-08-31T04:05:00;11.30;;;4.53;;
19869;SDS011;10097;50.862;4.696;2023-08-31T04:07:26;11.70;;;4.00;;
19869;SDS011;10097;50.862;4.696;2023-08-31T04:09:51;14.73;;;4.50;;
19869;SDS011;10097;50.862;4.696;2023-08-31T04:12:17;11.50;;;4.50;;
19869;SDS011;10097;50.862;4.696;2023-08-31T04:14:45;11.07;;;4.23;;
19869;SDS011;10097;50.862;4.696;2023-08-31T04:17:11;10.07;;;3.93;;
19869;SDS011;10097;50.862;4.696;2023-08-31T04:19:37;7.80;;;3.47;;
19869;SDS011;10097;50.862;4.696;2023-08-31T04:22:05;10.10;;;3.90;;
19869;SDS011;10097;50.862;4.696;2023-08-31T04:24:31;8.30;;;3.73;;
19869;SDS011;10097;50.862;4.696;2023-08-31T04:26:56;14.60;;;4.70;;
19869;SDS011;10097;50.862;4.696;2023-08-31T04:29:22;13.23;;;4.33;;
19869;SDS011;10097;50.862;4.696;2023-08-31T04:31:48;14.80;;;4.50;;
19869;SDS011;10097;50.862;4.696;2023-08-31T04:34:13;9.90;;;3.80;;
19869;SDS011;10097;50.862;4.696;2023-08-31T04:36:39;10.50;;;4.23;;
19869;SDS011;10097;50.862;4.696;2023-08-31T04:39:05;16.67;;;3.63;;
19869;SDS011;10097;50.862;4.696;2023-08-31T04:41:35;10.60;;;4.43;;
19869;SDS011;10097;50.862;4.696;2023-08-31T04:44:00;12.90;;;3.93;;
19869;SDS011;10097;50.862;4.696;2023-08-31T04:46:26;10.30;;;3.90;;
19869;SDS011;10097;50.862;4.696;2023-08-31T04:48:52;8.40;;;3.53;;
19869;SDS011;10097;50.862;4.696;2023-08-31T04:51:36;10.17;;;3.97;;
19869;SDS011;10097;50.862;4.696;2023-08-31T04:54:06;12.57;;;3.70;;
19869;SDS011;10097;50.862;4.696;2023-08-31T04:56:33;13.67;;;4.40;;
19869;SDS011;10097;50.862;4.696;2023-08-31T04:59:02;11.80;;;4.13;;
19869;SDS011;10097;50.862;4.696;2023-08-31T05:01:28;13.10;;;4.20;;
19869;SDS011;10097;50.862;4.696;2023-08-31T05:03:54;12.13;;;4.03;;
19869;SDS011;10097;50.862;4.696;2023-08-31T05:06:19;10.40;;;3.77;;
19869;SDS011;10097;50.862;4.696;2023-08-31T05:08:48;10.67;;;3.90;;
19869;SDS011;10097;50.862;4.696;2023-08-31T05:11:16;8.87;;;4.33;;
19869;SDS011;10097;50.862;4.696;2023-08-31T05:13:42;14.73;;;4.20;;
19869;SDS011;10097;50.862;4.696;2023-08-31T05:16:08;11.27;;;4.30;;
19869;SDS011;10097;50.862;4.696;2023-08-31T05:18:34;13.03;;;4.07;;
19869;SDS011;10097;50.862;4.696;2023-08-31T05:21:00;10.67;;;4.23;;
19869;SDS011;10097;50.862;4.696;2023-08-31T05:23:27;13.00;;;3.77;;
19869;SDS011;10097;50.862;4.696;2023-08-31T05:25:53;9.77;;;3.93;;
19869;SDS011;10097;50.862;4.696;2023-08-31T05:28:18;10.63;;;3.97;;
19869;SDS011;10097;50.862;4.696;2023-08-31T05:30:48;10.13;;;4.13;;
19869;SDS011;10097;50.862;4.696;2023-08-31T05:33:15;13.33;;;4.63;;
19869;SDS011;10097;50.862;4.696;2023-08-31T05:35:45;12.33;;;3.73;;
19869;SDS011;10097;50.862;4.696;2023-08-31T05:38:11;14.27;;;4.53;;
19869;SDS011;10097;50.862;4.696;2023-08-31T05:40:37;12.83;;;4.10;;
19869;SDS011;10097;50.862;4.696;2023-08-31T05:43:03;9.93;;;4.13;;
19869;SDS011;10097;50.862;4.696;2023-08-31T05:45:32;10.67;;;3.87;;
19869;SDS011;10097;50.862;4.696;2023-08-31T05:47:59;13.70;;;4.13;;
19869;SDS011;10097;50.862;4.696;2023-08-31T05:50:25;11.67;;;3.83;;
19869;SDS011;10097;50.862;4.696;2023-08-31T05:52:52;12.40;;;4.77;;
19869;SDS011;10097;50.862;4.696;2023-08-31T05:55:18;14.43;;;4.60;;
19869;SDS011;10097;50.862;4.696;2023-08-31T05:57:46;11.50;;;4.30;;
19869;SDS011;10097;50.862;4.696;2023-08-31T06:00:12;12.60;;;4.83;;
19869;SDS011;10097;50.862;4.696;2023-08-31T06:02:41;17.10;;;4.47;;
19869;SDS011;10097;50.862;4.696;2023-08-31T06:05:08;15.40;;;4.90;;
19869;SDS011;10097;50.862;4.696;2023-08-31T06:07:37;13.93;;;4.53;;
19869;SDS011;10097;50.862;4.696;2023-08-31T06:10:06;22.37;;;5.20;;
19869;SDS011;10097;50.862;4.696;2023-08-31T06:12:32;18.43;;;5.07;;
19869;SDS011;10097;50.862;4.696;2023-08-31T06:14:58;16.27;;;5.03;;
19869;SDS011;10097;50.862;4.696;2023-08-31T06:17:26;10.63;;;4.43;;
19869;SDS011;10097;50.862;4.696;2023-08-31T06:19:52;12.83;;;4.67;;
19869;SDS011;10097;50.862;4.696;2023-08-31T06:22:17;17.90;;;5.20;;
19869;SDS011;10097;50.862;4.696;2023-08-31T06:24:43;18.20;;;4.80;;
19869;SDS011;10097;50.862;4.696;2023-08-31T06:27:10;16.00;;;5.30;;
19869;SDS011;10097;50.862;4.696;2023-08-31T06:29:37;11.47;;;4.70;;
19869;SDS011;10097;50.862;4.696;2023-08-31T06:32:03;8.83;;;4.43;;
19869;SDS011;10097;50.862;4.696;2023-08-31T06:34:29;15.03;;;5.03;;
19869;SDS011;10097;50.862;4.696;2023-08-31T06:36:56;13.93;;;4.83;;
19869;SDS011;10097;50.862;4.696;2023-08-31T06:39:25;14.00;;;4.77;;
19869;SDS011;10097;50.862;4.696;2023-08-31T06:41:51;11.93;;;4.80;;
19869;SDS011;10097;50.862;4.696;2023-08-31T06:44:17;22.60;;;5.13;;
19869;SDS011;10097;50.862;4.696;2023-08-31T06:46:43;14.17;;;4.90;;
19869;SDS011;10097;50.862;4.696;2023-08-31T06:49:08;11.20;;;4.50;;
19869;SDS011;10097;50.862;4.696;2023-08-31T06:51:35;14.60;;;4.70;;
19869;SDS011;10097;50.862;4.696;2023-08-31T06:54:03;9.77;;;4.40;;
19869;SDS011;10097;50.862;4.696;2023-08-31T06:56:34;16.13;;;4.57;;
19869;SDS011;10097;50.862;4.696;2023-08-31T06:59:03;14.33;;;4.53;;
19869;SDS011;10097;50.862;4.696;2023-08-31T07:01:29;14.33;;;4.47;;
19869;SDS011;10097;50.862;4.696;2023-08-31T07:04:00;13.27;;;4.40;;
19869;SDS011;10097;50.862;4.696;2023-08-31T07:06:36;16.00;;;5.10;;
19869;SDS011;10097;50.862;4.696;2023-08-31T07:09:02;15.63;;;4.80;;
19869;SDS011;10097;50.862;4.696;2023-08-31T07:11:31;19.60;;;4.97;;
19869;SDS011;10097;50.862;4.696;2023-08-31T07:13:59;15.90;;;4.33;;
19869;SDS011;10097;50.862;4.696;2023-08-31T07:16:27;18.03;;;4.40;;
19869;SDS011;10097;50.862;4.696;2023-08-31T07:18:53;13.33;;;4.50;;
19869;SDS011;10097;50.862;4.696;2023-08-31T07:21:19;11.43;;;4.13;;
19869;SDS011;10097;50.862;4.696;2023-08-31T07:23:44;22.80;;;4.93;;
19869;SDS011;10097;50.862;4.696;2023-08-31T07:26:10;26.33;;;4.93;;
19869;SDS011;10097;50.862;4.696;2023-08-31T07:28:38;14.03;;;4.50;;
19869;SDS011;10097;50.862;4.696;2023-08-31T07:31:04;15.57;;;4.77;;
19869;SDS011;10097;50.862;4.696;2023-08-31T07:33:31;14.13;;;4.27;;
19869;SDS011;10097;50.862;4.696;2023-08-31T07:36:00;18.27;;;3.93;;
19869;SDS011;10097;50.862;4.696;2023-08-31T07:38:28;21.20;;;4.43;;
19869;SDS011;10097;50.862;4.696;2023-08-31T07:40:55;15.03;;;4.27;;
19869;SDS011;10097;50.862;4.696;2023-08-31T07:43:30;15.77;;;4.00;;
19869;SDS011;10097;50.862;4.696;2023-08-31T07:46:01;19.13;;;4.47;;
19869;SDS011;10097;50.862;4.696;2023-08-31T07:48:29;10.60;;;4.33;;
19869;SDS011;10097;50.862;4.696;2023-08-31T07:50:57;16.10;;;4.60;;
19869;SDS011;10097;50.862;4.696;2023-08-31T07:53:23;15.70;;;4.47;;
19869;SDS011;10097;50.862;4.696;2023-08-31T07:55:52;17.93;;;3.80;;
19869;SDS011;10097;50.862;4.696;2023-08-31T07:58:22;13.53;;;4.30;;
19869;SDS011;10097;50.862;4.696;2023-08-31T08:00:48;16.13;;;5.33;;
19869;SDS011;10097;50.862;4.696;2023-08-31T08:03:17;13.97;;;4.33;;
19869;SDS011;10097;50.862;4.696;2023-08-31T08:05:43;13.53;;;4.13;;
19869;SDS011;10097;50.862;4.696;2023-08-31T08:08:13;17.35;;;4.43;;
19869;SDS011;10097;50.862;4.696;2023-08-31T08:10:41;15.82;;;4.13;;
19869;SDS011;10097;50.862;4.696;2023-08-31T08:13:16;14.40;;;4.47;;
19869;SDS011;10097;50.862;4.696;2023-08-31T08:15:53;12.68;;;4.25;;
19869;SDS011;10097;50.862;4.696;2023-08-31T08:18:19;15.07;;;3.70;;
19869;SDS011;10097;50.862;4.696;2023-08-31T08:20:48;15.52;;;4.15;;
19869;SDS011;10097;50.862;4.696;2023-08-31T08:23:17;16.83;;;4.53;;
19869;SDS011;10097;50.862;4.696;2023-08-31T08:25:42;17.95;;;3.65;;
19869;SDS011;10097;50.862;4.696;2023-08-31T08:28:11;13.73;;;3.88;;
19869;SDS011;10097;50.862;4.696;2023-08-31T08:30:36;12.15;;;3.53;;
19869;SDS011;10097;50.862;4.696;2023-08-31T08:33:02;12.27;;;3.38;;
19869;SDS011;10097;50.862;4.696;2023-08-31T08:35:28;13.18;;;2.88;;
19869;SDS011;10097;50.862;4.696;2023-08-31T08:37:59;13.77;;;3.72;;
19869;SDS011;10097;50.862;4.696;2023-08-31T08:40:30;17.33;;;3.63;;
19869;SDS011;10097;50.862;4.696;2023-08-31T08:43:00;12.38;;;3.65;;
19869;SDS011;10097;50.862;4.696;2023-08-31T08:45:29;12.73;;;3.53;;
19869;SDS011;10097;50.862;4.696;2023-08-31T08:48:01;10.93;;;3.20;;
19869;SDS011;10097;50.862;4.696;2023-08-31T08:50:30;9.43;;;3.30;;
19869;SDS011;10097;50.862;4.696;2023-08-31T08:52:59;11.27;;;3.40;;
19869;SDS011;10097;50.862;4.696;2023-08-31T08:55:28;14.23;;;3.42;;
19869;SDS011;10097;50.862;4.696;2023-08-31T08:57:55;13.88;;;3.50;;
19869;SDS011;10097;50.862;4.696;2023-08-31T09:00:21;8.93;;;2.70;;
19869;SDS011;10097;50.862;4.696;2023-08-31T09:02:49;12.50;;;3.33;;
19869;SDS011;10097;50.862;4.696;2023-08-31T09:05:20;12.55;;;3.38;;
19869;SDS011;10097;50.862;4.696;2023-08-31T09:08:05;11.90;;;3.20;;
19869;SDS011;10097;50.862;4.696;2023-08-31T09:10:42;11.10;;;2.60;;
19869;SDS011;10097;50.862;4.696;2023-08-31T09:13:09;8.45;;;3.10;;
19869;SDS011;10097;50.862;4.696;2023-08-31T09:15:39;12.45;;;3.55;;
19869;SDS011;10097;50.862;4.696;2023-08-31T09:18:22;15.07;;;2.90;;
19869;SDS011;10097;50.862;4.696;2023-08-31T09:20:57;13.07;;;2.83;;
19869;SDS011;10097;50.862;4.696;2023-08-31T09:23:23;9.48;;;3.20;;
19869;SDS011;10097;50.862;4.696;2023-08-31T09:25:53;10.82;;;3.05;;
19869;SDS011;10097;50.862;4.696;2023-08-31T09:28:20;11.85;;;2.75;;
19869;SDS011;10097;50.862;4.696;2023-08-31T09:30:48;14.43;;;2.75;;
19869;SDS011;10097;50.862;4.696;2023-08-31T09:33:18;8.35;;;2.78;;
19869;SDS011;10097;50.862;4.696;2023-08-31T09:36:08;13.60;;;3.03;;
19869;SDS011;10097;50.862;4.696;2023-08-31T09:38:40;12.98;;;2.95;;
19869;SDS011;10097;50.862;4.696;2023-08-31T09:41:24;12.02;;;3.00;;
19869;SDS011;10097;50.862;4.696;2023-08-31T09:44:14;7.75;;;2.80;;
19869;SDS011;10097;50.862;4.696;2023-08-31T09:46:41;12.15;;;3.00;;
19869;SDS011;10097;50.862;4.696;2023-08-31T09:49:35;9.15;;;2.17;;
19869;SDS011;10097;50.862;4.696;2023-08-31T09:52:04;8.23;;;2.67;;
19869;SDS011;10097;50.862;4.696;2023-08-31T09:54:31;8.10;;;2.30;;
19869;SDS011;10097;50.862;4.696;2023-08-31T09:57:00;9.75;;;2.47;;
19869;SDS011;10097;50.862;4.696;2023-08-31T09:59:27;9.13;;;2.45;;
19869;SDS011;10097;50.862;4.696;2023-08-31T10:01:53;13.80;;;3.47;;
19869;SDS011;10097;50.862;4.696;2023-08-31T10:04:21;8.50;;;2.17;;
19869;SDS011;10097;50.862;4.696;2023-08-31T10:06:48;9.32;;;2.03;;
19869;SDS011;10097;50.862;4.696;2023-08-31T10:09:15;9.68;;;2.38;;
19869;SDS011;10097;50.862;4.696;2023-08-31T10:11:44;9.40;;;2.30;;
19869;SDS011;10097;50.862;4.696;2023-08-31T10:14:11;7.70;;;2.13;;
19869;SDS011;10097;50.862;4.696;2023-08-31T10:16:42;6.95;;;2.25;;
19869;SDS011;10097;50.862;4.696;2023-08-31T10:19:10;10.35;;;2.83;;
19869;SDS011;10097;50.862;4.696;2023-08-31T10:21:40;9.45;;;2.10;;
19869;SDS011;10097;50.862;4.696;2023-08-31T10:24:09;9.20;;;2.13;;
19869;SDS011;10097;50.862;4.696;2023-08-31T10:26:34;9.02;;;2.50;;
19869;SDS011;10097;50.862;4.696;2023-08-31T10:29:00;11.98;;;2.20;;
19869;SDS011;10097;50.862;4.696;2023-08-31T10:31:31;9.13;;;2.25;;
19869;SDS011;10097;50.862;4.696;2023-08-31T10:33:59;6.63;;;2.00;;
19869;SDS011;10097;50.862;4.696;2023-08-31T10:36:36;10.63;;;2.30;;
19869;SDS011;10097;50.862;4.696;2023-08-31T10:39:11;11.07;;;2.10;;
19869;SDS011;10097;50.862;4.696;2023-08-31T10:41:39;8.13;;;2.15;;
19869;SDS011;10097;50.862;4.696;2023-08-31T10:44:26;11.25;;;1.73;;
19869;SDS011;10097;50.862;4.696;2023-08-31T10:46:55;8.88;;;2.25;;
19869;SDS011;10097;50.862;4.696;2023-08-31T10:49:24;9.02;;;1.90;;
19869;SDS011;10097;50.862;4.696;2023-08-31T10:51:54;11.48;;;2.42;;
19869;SDS011;10097;50.862;4.696;2023-08-31T10:54:30;7.43;;;1.85;;
19869;SDS011;10097;50.862;4.696;2023-08-31T10:59:25;9.07;;;2.30;;
19869;SDS011;10097;50.862;4.696;2023-08-31T11:02:07;7.03;;;2.17;;
19869;SDS011;10097;50.862;4.696;2023-08-31T11:04:55;11.40;;;2.25;;
19869;SDS011;10097;50.862;4.696;2023-08-31T11:07:26;8.20;;;2.10;;
19869;SDS011;10097;50.862;4.696;2023-08-31T11:10:06;9.60;;;1.80;;
19869;SDS011;10097;50.862;4.696;2023-08-31T11:12:34;9.77;;;1.88;;
19869;SDS011;10097;50.862;4.696;2023-08-31T11:15:00;5.82;;;1.55;;
19869;SDS011;10097;50.862;4.696;2023-08-31T11:17:33;11.43;;;2.13;;
19869;SDS011;10097;50.862;4.696;2023-08-31T11:20:18;7.60;;;1.75;;
19869;SDS011;10097;50.862;4.696;2023-08-31T11:23:01;9.32;;;2.00;;
19869;SDS011;10097;50.862;4.696;2023-08-31T11:25:49;6.95;;;1.85;;
19869;SDS011;10097;50.862;4.696;2023-08-31T11:28:23;8.35;;;1.75;;
19869;SDS011;10097;50.862;4.696;2023-08-31T11:30:51;8.23;;;1.90;;
19869;SDS011;10097;50.862;4.696;2023-08-31T11:33:27;8.65;;;1.73;;
19869;SDS011;10097;50.862;4.696;2023-08-31T11:36:06;7.82;;;1.92;;
19869;SDS011;10097;50.862;4.696;2023-08-31T11:38:35;8.48;;;1.83;;
19869;SDS011;10097;50.862;4.696;2023-08-31T11:41:04;7.43;;;1.90;;
19869;SDS011;10097;50.862;4.696;2023-08-31T11:43:38;8.45;;;1.85;;
19869;SDS011;10097;50.862;4.696;2023-08-31T11:46:04;7.00;;;1.88;;
19869;SDS011;10097;50.862;4.696;2023-08-31T11:48:32;10.35;;;2.15;;
19869;SDS011;10097;50.862;4.696;2023-08-31T11:51:04;13.75;;;2.63;;
19869;SDS011;10097;50.862;4.696;2023-08-31T11:53:32;9.63;;;2.20;;
19869;SDS011;10097;50.862;4.696;2023-08-31T11:56:01;10.25;;;2.08;;
19869;SDS011;10097;50.862;4.696;2023-08-31T11:58:32;9.10;;;1.95;;
19869;SDS011;10097;50.862;4.696;2023-08-31T12:01:21;14.55;;;2.38;;
19869;SDS011;10097;50.862;4.696;2023-08-31T12:03:47;15.05;;;1.90;;
19869;SDS011;10097;50.862;4.696;2023-08-31T12:06:18;9.68;;;1.90;;
19869;SDS011;10097;50.862;4.696;2023-08-31T12:08:46;6.90;;;1.95;;
19869;SDS011;10097;50.862;4.696;2023-08-31T12:11:15;12.57;;;2.30;;
19869;SDS011;10097;50.862;4.696;2023-08-31T12:13:43;7.05;;;1.60;;
19869;SDS011;10097;50.862;4.696;2023-08-31T12:16:13;5.00;;;1.83;;
19869;SDS011;10097;50.862;4.696;2023-08-31T12:18:42;7.32;;;1.80;;
19869;SDS011;10097;50.862;4.696;2023-08-31T12:21:19;10.30;;;1.77;;
19869;SDS011;10097;50.862;4.696;2023-08-31T12:23:46;10.63;;;1.77;;
19869;SDS011;10097;50.862;4.696;2023-08-31T12:26:12;11.80;;;1.90;;
19869;SDS011;10097;50.862;4.696;2023-08-31T12:28:37;9.73;;;1.90;;
19869;SDS011;10097;50.862;4.696;2023-08-31T12:31:08;10.88;;;1.92;;
19869;SDS011;10097;50.862;4.696;2023-08-31T12:33:34;8.20;;;1.52;;
19869;SDS011;10097;50.862;4.696;2023-08-31T12:36:05;9.00;;;1.77;;
19869;SDS011;10097;50.862;4.696;2023-08-31T12:38:31;5.70;;;1.33;;
19869;SDS011;10097;50.862;4.696;2023-08-31T12:41:16;8.32;;;2.03;;
19869;SDS011;10097;50.862;4.696;2023-08-31T12:43:43;6.18;;;1.48;;
19869;SDS011;10097;50.862;4.696;2023-08-31T12:46:19;8.90;;;2.30;;
19869;SDS011;10097;50.862;4.696;2023-08-31T12:48:47;6.82;;;1.30;;
19869;SDS011;10097;50.862;4.696;2023-08-31T12:51:14;6.93;;;1.63;;
19869;SDS011;10097;50.862;4.696;2023-08-31T12:53:51;7.38;;;1.75;;
19869;SDS011;10097;50.862;4.696;2023-08-31T12:56:22;4.00;;;1.23;;
19869;SDS011;10097;50.862;4.696;2023-08-31T12:58:53;6.40;;;1.67;;
19869;SDS011;10097;50.862;4.696;2023-08-31T13:01:20;9.40;;;1.80;;
19869;SDS011;10097;50.862;4.696;2023-08-31T13:03:50;13.00;;;1.85;;
19869;SDS011;10097;50.862;4.696;2023-08-31T13:06:17;7.18;;;1.80;;
19869;SDS011;10097;50.862;4.696;2023-08-31T13:08:45;7.55;;;1.70;;
19869;SDS011;10097;50.862;4.696;2023-08-31T13:11:15;6.53;;;1.85;;
19869;SDS011;10097;50.862;4.696;2023-08-31T13:13:44;7.00;;;1.70;;
19869;SDS011;10097;50.862;4.696;2023-08-31T13:16:16;7.80;;;1.70;;
19869;SDS011;10097;50.862;4.696;2023-08-31T13:18:47;6.93;;;1.60;;
19869;SDS011;10097;50.862;4.696;2023-08-31T13:21:14;8.38;;;1.80;;
19869;SDS011;10097;50.862;4.696;2023-08-31T13:23:40;6.95;;;1.80;;
19869;SDS011;10097;50.862;4.696;2023-08-31T13:26:16;6.20;;;1.55;;
19869;SDS011;10097;50.862;4.696;2023-08-31T13:28:54;7.82;;;1.35;;
19869;SDS011;10097;50.862;4.696;2023-08-31T13:31:27;5.28;;;1.50;;
19869;SDS011;10097;50.862;4.696;2023-08-31T13:33:58;6.78;;;1.33;;
19869;SDS011;10097;50.862;4.696;2023-08-31T13:36:43;6.05;;;1.27;;
19869;SDS011;10097;50.862;4.696;2023-08-31T13:39:14;5.43;;;1.17;;
19869;SDS011;10097;50.862;4.696;2023-08-31T13:41:45;9.55;;;1.60;;
19869;SDS011;10097;50.862;4.696;2023-08-31T13:44:27;6.93;;;1.60;;
19869;SDS011;10097;50.862;4.696;2023-08-31T13:47:00;6.50;;;1.58;;
19869;SDS011;10097;50.862;4.696;2023-08-31T13:49:31;9.32;;;1.60;;
19869;SDS011;10097;50.862;4.696;2023-08-31T13:51:59;6.10;;;1.40;;
19869;SDS011;10097;50.862;4.696;2023-08-31T13:54:28;8.63;;;1.90;;
19869;SDS011;10097;50.862;4.696;2023-08-31T13:56:56;5.57;;;1.25;;
19869;SDS011;10097;50.862;4.696;2023-08-31T13:59:34;7.05;;;1.77;;
19869;SDS011;10097;50.862;4.696;2023-08-31T14:01:59;4.85;;;1.33;;
19869;SDS011;10097;50.862;4.696;2023-08-31T14:04:32;9.57;;;1.38;;
19869;SDS011;10097;50.862;4.696;2023-08-31T14:07:09;8.20;;;1.38;;
19869;SDS011;10097;50.862;4.696;2023-08-31T14:09:40;7.57;;;1.42;;
19869;SDS011;10097;50.862;4.696;2023-08-31T14:12:13;5.75;;;1.52;;
19869;SDS011;10097;50.862;4.696;2023-08-31T14:14:49;7.82;;;1.52;;
19869;SDS011;10097;50.862;4.696;2023-08-31T14:17:39;6.85;;;1.50;;
19869;SDS011;10097;50.862;4.696;2023-08-31T14:20:19;7.65;;;1.65;;
19869;SDS011;10097;50.862;4.696;2023-08-31T14:23:10;10.93;;;2.75;;
19869;SDS011;10097;50.862;4.696;2023-08-31T14:26:11;9.45;;;1.83;;
19869;SDS011;10097;50.862;4.696;2023-08-31T14:28:40;6.25;;;1.98;;
19869;SDS011;10097;50.862;4.696;2023-08-31T14:31:10;5.55;;;1.60;;
19869;SDS011;10097;50.862;4.696;2023-08-31T14:33:49;7.72;;;1.70;;
19869;SDS011;10097;50.862;4.696;2023-08-31T14:36:17;7.63;;;1.92;;
19869;SDS011;10097;50.862;4.696;2023-08-31T14:38:43;10.50;;;1.83;;
19869;SDS011;10097;50.862;4.696;2023-08-31T14:41:13;9.55;;;2.15;;
19869;SDS011;10097;50.862;4.696;2023-08-31T14:43:38;8.40;;;1.75;;
19869;SDS011;10097;50.862;4.696;2023-08-31T14:46:07;7.72;;;1.92;;
19869;SDS011;10097;50.862;4.696;2023-08-31T14:48:35;8.45;;;2.10;;
19869;SDS011;10097;50.862;4.696;2023-08-31T14:51:03;8.38;;;2.00;;
19869;SDS011;10097;50.862;4.696;2023-08-31T14:53:29;8.13;;;2.38;;
19869;SDS011;10097;50.862;4.696;2023-08-31T14:55:55;8.68;;;1.90;;
19869;SDS011;10097;50.862;4.696;2023-08-31T14:58:26;7.63;;;1.83;;
19869;SDS011;10097;50.862;4.696;2023-08-31T15:01:19;9.02;;;2.15;;